SPQUSPJL

Guest
Details From SPQU - RODRIGUEZ BALLON
To SPJL - JULIACA
Flight Number -
Tags generated
Created
Modified
Stats Distance 97 nm / 180 km
Max Altitude 9,900 ft / 3,018 m
Waypoints 3
Social Downloads 2
Likes 0
Share VATSIM

Download

Looking for another format? Having issues loading an existing format? Contact us
Advertisement - Login to hide

Notes

Basic altitude profile: - Ascent Rate: 1500ft/min - Ascent Speed: 230kts - Cruise Altitude: 17000ft - Cruise Speed: 260kts - Descent Rate: 1700ft/min - Descent Speed: 230kts Options: - Use NATs: yes - Use PACOTS: yes - Use low airways: yes - Use high airways: yes

Route

SPQU TONOS SPJL

ID Type Via Altitude Latitude Longitude Leg Dist Tot Dist Heading (true) Name
O SPQU APT - 0 ft / 0 m -16.34058˚ -71.57080˚ - 0 nm - RODRIGUEZ BALLON
TONOS FIX - 9,900 ft / 3,018 m -15.92444˚ -70.90583˚ 45 nm 45 nm 57° / 57° -
O SPJL APT - 0 ft / 0 m -15.46710˚ -70.15817˚ 51 nm 97 nm 58° / 57° JULIACA

Altitude Profile

Advertisement - Login to hide

SPQU

Details ICAO SPQU (AQP)
Name RODRIGUEZ BALLON
Region Peru
Timezone America/Lima (UTC-5.0)
Stats Elevation 8,405 ft / 2,562 m (AMSL)
Location -16.340578° -71.570802°
Runways 1
Magnetic Variation 5.059° W

METAR

SPQU 122000Z 26011KT 230V290 9999 FEW060 19/05 Q1025 NOSIG RMK PP000

Decode

TAF

TAF SPQU 121700Z 1218/1318 25012KT CAVOK TX20/1219Z TN07/1311Z BECMG 1300/1302 03004KT BECMG 1311/1313 24010KT

Decode

Departure Runways

ID Width Length Bearing (true) Bearing (mag) Surface Threshold Offset Overrun Length
09 148 ft / 45 m 9,761 ft / 2,975 m 93.17° 98.23° Asphalt 0 ft / 0 m 185 ft / 56 m
27 148 ft / 45 m 9,761 ft / 2,975 m 273.16° 278.22° Asphalt 1,467 ft / 447 m 185 ft / 56 m

SPJL

Details ICAO SPJL (JUL)
Name JULIACA
Region Peru
Timezone America/Lima (UTC-5.0)
Stats Elevation 12,552 ft / 3,826 m (AMSL)
Location -15.467104° -70.158169°
Runways 1
Magnetic Variation 6.524° W

METAR

SPJL 122000Z /////KT CAVOK 19/M03 Q1030 RMK PPOOO

Decode

TAF

TAF SPJL 121100Z 1212/1312 30003KT CAVOK TX20/1219Z TN03/1310Z TEMPO 1221/1224 13010KT SCT020

Decode

Destination Runways

ID Width Length Bearing (true) Bearing (mag) Surface Threshold Offset Overrun Length
12 150 ft / 46 m 13,782 ft / 4,201 m 112.07° 118.59° Asphalt 0 ft / 0 m 200 ft / 61 m
30 150 ft / 46 m 13,782 ft / 4,201 m 292.06° 298.58° Asphalt 0 ft / 0 m 200 ft / 61 m

Popular Alternatives